createdAt,value
2018-08-22T00:12:28.201Z,33.10
2018-08-22T00:17:43.467Z,33.30
2018-08-22T00:24:44.368Z,33.30
2018-08-22T00:27:18.834Z,33.20
2018-08-22T00:29:52.777Z,33.20
2018-08-22T00:32:26.331Z,33.20
2018-08-22T00:34:59.805Z,33.10
2018-08-22T00:37:34.645Z,33.00
2018-08-22T00:40:09.668Z,33.10
2018-08-22T00:42:44.070Z,32.90
2018-08-22T00:45:21.342Z,32.80
2018-08-22T00:48:04.161Z,32.80
2018-08-22T00:50:37.618Z,32.80
2018-08-22T00:53:15.020Z,32.70
2018-08-22T00:55:50.849Z,32.50
2018-08-22T02:28:05.294Z,32.10
2018-08-22T02:30:38.501Z,28.00
2018-08-22T02:33:12.415Z,27.70
2018-08-22T02:35:45.544Z,27.60
2018-08-22T02:38:25.613Z,27.40
2018-08-22T02:41:00.029Z,27.30
2018-08-22T02:43:33.450Z,27.10
2018-08-22T02:46:06.931Z,27.00
2018-08-22T02:48:45.671Z,26.80
2018-08-22T02:51:20.056Z,26.60
2018-08-22T02:53:53.875Z,26.40
2018-08-22T02:56:27.907Z,26.30
2018-08-22T02:59:01.098Z,26.20
2018-08-22T03:01:34.354Z,25.90
2018-08-22T03:04:07.563Z,25.80
2018-08-22T03:06:40.945Z,25.70
2018-08-22T03:09:13.977Z,25.50
2018-08-22T03:11:47.260Z,25.30
2018-08-22T03:14:20.472Z,25.20
2018-08-22T03:16:53.813Z,25.10
2018-08-22T03:19:27.233Z,25.00
2018-08-22T03:22:00.892Z,24.80
2018-08-22T03:24:34.133Z,24.70
2018-08-22T03:27:07.563Z,24.60
2018-08-22T03:29:41.367Z,24.40
2018-08-22T03:35:03.952Z,24.20
2018-08-22T03:37:44.584Z,24.00
2018-08-22T04:58:37.284Z,21.60
2018-08-22T05:25:45.443Z,21.10
2018-08-22T08:42:50.551Z,20.90
2018-08-22T08:45:24.555Z,18.50
2018-08-22T08:48:02.083Z,18.40
2018-08-22T08:50:36.029Z,18.30
2018-08-22T08:53:09.724Z,18.30
2018-08-22T08:55:43.225Z,18.30
2018-08-22T08:58:17.985Z,18.30
2018-08-22T09:00:51.448Z,18.20
2018-08-22T09:03:25.783Z,18.20
2018-08-22T09:05:59.436Z,18.10
2018-08-22T09:08:32.985Z,18.00
2018-08-22T09:11:10.346Z,18.00
2018-08-22T09:13:54.661Z,18.00
2018-08-22T09:16:27.819Z,17.90
2018-08-22T09:19:01.748Z,17.90
2018-08-22T09:21:36.807Z,17.80
2018-08-22T09:24:16.438Z,17.80
2018-08-22T09:26:55.264Z,17.80
2018-08-22T09:29:28.951Z,17.70
2018-08-22T09:32:03.978Z,17.70
2018-08-22T09:34:39.830Z,17.70
2018-08-22T09:37:15.075Z,17.70
2018-08-22T09:39:49.606Z,17.70
2018-08-22T09:42:22.932Z,17.60
2018-08-22T09:45:00.433Z,17.60
2018-08-22T09:47:35.495Z,17.60
2018-08-22T09:50:12.016Z,17.50
2018-08-22T09:52:48.509Z,17.50
2018-08-22T09:55:21.904Z,17.50
2018-08-22T09:57:55.096Z,17.50
2018-08-22T10:00:35.163Z,17.50
2018-08-22T10:03:09.838Z,17.50
2018-08-22T10:05:45.321Z,17.50
2018-08-22T10:08:19.359Z,17.40
2018-08-22T10:10:56.926Z,17.30
2018-08-22T10:13:31.340Z,17.30
2018-08-22T10:16:06.966Z,17.20
2018-08-22T10:18:43.262Z,17.20
2018-08-22T10:21:18.729Z,17.20
2018-08-22T10:23:52.840Z,17.20
2018-08-22T10:26:28.082Z,17.20
2018-08-22T10:29:04.304Z,17.20
2018-08-22T10:31:40.688Z,17.10
2018-08-22T10:34:18.121Z,17.10
2018-08-22T10:36:53.473Z,17.10
2018-08-22T10:39:28.070Z,17.10
2018-08-22T10:42:07.179Z,17.10
2018-08-22T10:44:40.631Z,17.10
2018-08-22T10:47:16.864Z,17.00
2018-08-22T10:49:51.152Z,17.00
2018-08-22T10:52:24.514Z,17.00
2018-08-22T10:54:58.114Z,17.00
2018-08-22T10:57:32.297Z,16.90
2018-08-22T11:00:07.660Z,16.90
2018-08-22T11:02:45.080Z,16.90
2018-08-22T11:05:19.967Z,16.80
2018-08-22T11:07:53.251Z,16.80
2018-08-22T11:10:26.473Z,16.80
2018-08-22T11:12:59.697Z,16.70
2018-08-22T11:15:33.993Z,16.70
2018-08-22T11:18:13.008Z,16.70
2018-08-22T11:20:53.947Z,16.60
2018-08-22T11:23:36.600Z,16.60
2018-08-22T11:26:18.997Z,16.50
2018-08-22T11:29:02.768Z,16.50
2018-08-22T11:31:45.311Z,16.50
2018-08-22T11:34:28.778Z,16.50
2018-08-22T11:37:12.607Z,16.40
2018-08-22T11:39:46.255Z,16.40
2018-08-22T11:42:22.138Z,16.40
2018-08-22T11:44:56.153Z,16.40
2018-08-22T11:47:29.618Z,16.40
2018-08-22T11:50:04.402Z,16.40
2018-08-22T11:52:39.920Z,16.40
2018-08-22T11:55:16.911Z,16.30
2018-08-22T11:57:51.247Z,16.30
2018-08-22T12:00:25.511Z,16.40
2018-08-22T12:02:59.547Z,16.30
2018-08-22T12:05:33.708Z,16.30
2018-08-22T12:08:07.835Z,16.30
2018-08-22T12:10:43.719Z,16.30
2018-08-22T12:13:17.914Z,16.20
2018-08-22T12:15:51.335Z,16.20
2018-08-22T12:18:26.203Z,16.20
2018-08-22T12:21:00.796Z,16.20
2018-08-22T12:23:37.063Z,16.20
2018-08-22T12:26:12.392Z,16.20
2018-08-22T12:28:46.127Z,16.10
2018-08-22T12:31:19.939Z,16.10
2018-08-22T12:33:59.873Z,16.10
2018-08-22T12:36:39.266Z,16.10
2018-08-22T12:39:14.846Z,16.10
2018-08-22T12:41:48.404Z,16.10
2018-08-22T12:44:23.446Z,16.00
2018-08-22T12:46:57.381Z,16.00
2018-08-22T12:49:31.639Z,16.00
2018-08-22T12:52:06.768Z,16.00
2018-08-22T12:54:40.251Z,15.90
2018-08-22T12:57:16.081Z,15.90
2018-08-22T12:59:49.494Z,15.90
2018-08-22T13:02:24.999Z,15.80
2018-08-22T13:04:58.469Z,15.80
2018-08-22T13:07:33.084Z,15.80
2018-08-22T13:10:06.283Z,15.80
2018-08-22T13:12:40.414Z,15.80
2018-08-22T13:15:13.736Z,15.70
2018-08-22T13:17:50.867Z,15.70
2018-08-22T13:20:25.147Z,15.60
2018-08-22T13:22:58.388Z,15.50
2018-08-22T13:25:31.975Z,15.50
2018-08-22T13:28:06.589Z,15.50
2018-08-22T13:30:41.169Z,15.40
2018-08-22T13:33:16.844Z,15.40
2018-08-22T13:35:51.162Z,15.40
2018-08-22T13:38:24.754Z,15.40
2018-08-22T13:40:58.768Z,15.40
2018-08-22T13:43:32.512Z,15.30
2018-08-22T13:46:06.056Z,15.30
2018-08-22T13:48:39.406Z,15.40
2018-08-22T13:51:13.253Z,15.40
2018-08-22T13:53:47.537Z,15.40
2018-08-22T13:56:20.978Z,15.50
2018-08-22T13:58:54.233Z,15.50
2018-08-22T14:01:27.930Z,15.60
2018-08-22T14:04:01.257Z,15.60
2018-08-22T14:06:35.461Z,15.60
2018-08-22T14:09:11.463Z,15.60
2018-08-22T14:11:46.938Z,15.70
2018-08-22T14:14:20.400Z,15.80
2018-08-22T14:16:54.469Z,15.80
2018-08-22T14:19:32.498Z,15.90
2018-08-22T14:22:06.808Z,15.90
2018-08-22T14:24:40.750Z,16.00
2018-08-22T14:27:15.231Z,16.00
2018-08-22T14:29:49.880Z,16.10
2018-08-22T14:32:24.513Z,16.20
2018-08-22T14:34:57.980Z,16.20
2018-08-22T14:37:32.818Z,16.30
2018-08-22T14:40:07.084Z,16.30
2018-08-22T14:42:40.790Z,16.40
2018-08-22T14:45:14.316Z,16.50
2018-08-22T14:47:48.048Z,16.50
2018-08-22T14:50:22.723Z,16.60
2018-08-22T14:52:55.907Z,16.70
2018-08-22T14:55:28.914Z,16.80
2018-08-22T14:58:02.311Z,16.90
2018-08-22T15:00:35.609Z,16.90
2018-08-22T15:03:09.533Z,17.00
2018-08-22T15:05:42.680Z,17.10
2018-08-22T15:08:16.347Z,17.20
2018-08-22T15:10:51.368Z,17.40
2018-08-22T15:13:25.004Z,17.50
2018-08-22T15:16:04.276Z,17.60
2018-08-22T15:18:39.679Z,17.70
2018-08-22T15:21:17.929Z,17.80
2018-08-22T15:23:54.828Z,17.90
2018-08-22T15:26:30.432Z,18.00
2018-08-22T15:29:03.958Z,18.20
2018-08-22T15:31:37.702Z,18.30
2018-08-22T15:34:12.250Z,18.50
2018-08-22T15:36:45.790Z,18.60
2018-08-22T15:39:19.079Z,18.80
2018-08-22T15:41:52.871Z,18.90
2018-08-22T15:44:27.625Z,19.00
2018-08-22T15:47:02.545Z,19.10
2018-08-22T15:49:36.329Z,19.20
2018-08-22T15:52:09.606Z,19.40
2018-08-22T15:54:43.790Z,19.40
2018-08-22T15:57:17.940Z,19.50
2018-08-22T15:59:52.191Z,19.60
2018-08-22T16:02:26.261Z,19.60
2018-08-22T16:04:59.448Z,19.70
2018-08-22T16:07:33.287Z,19.80
2018-08-22T16:10:06.889Z,19.90
2018-08-22T16:12:40.884Z,20.00
2018-08-22T16:15:15.688Z,20.10
2018-08-22T16:17:54.693Z,20.20
2018-08-22T16:20:29.416Z,20.30
2018-08-22T16:23:03.754Z,20.40
2018-08-22T16:25:41.492Z,20.50
2018-08-22T16:28:16.445Z,20.60
2018-08-22T16:30:57.041Z,20.60
2018-08-22T16:33:27.137Z,20.70
2018-08-22T16:36:01.146Z,20.80
2018-08-22T16:38:35.155Z,21.00
2018-08-22T16:41:08.896Z,20.80
2018-08-22T16:43:45.527Z,20.90
2018-08-22T16:46:18.993Z,21.00
2018-08-22T16:48:55.702Z,21.20
2018-08-22T16:51:30.037Z,21.30
2018-08-22T16:54:07.902Z,21.40
2018-08-22T16:56:41.297Z,21.50
2018-08-22T16:59:15.751Z,21.60
2018-08-22T17:01:52.210Z,21.60
2018-08-22T17:04:25.682Z,21.80
2018-08-22T17:07:04.523Z,21.90
2018-08-22T17:09:39.957Z,21.90
2018-08-22T17:12:14.036Z,21.90
2018-08-22T17:14:47.146Z,22.10
2018-08-22T17:17:20.358Z,22.10
2018-08-22T17:19:53.660Z,22.20
2018-08-22T17:22:27.839Z,22.30
2018-08-22T17:25:01.185Z,22.40
2018-08-22T17:27:34.651Z,22.30
2018-08-22T17:30:09.202Z,22.50
2018-08-22T17:32:42.482Z,22.40
2018-08-22T17:35:16.495Z,22.60
2018-08-22T17:38:08.885Z,22.60
2018-08-22T17:40:43.567Z,22.70
2018-08-22T17:43:16.994Z,22.60
2018-08-22T17:45:50.703Z,22.80
2018-08-22T17:48:25.336Z,22.90
2018-08-22T17:50:59.229Z,23.00
2018-08-22T17:53:32.773Z,23.10
2018-08-22T17:56:06.943Z,23.30
2018-08-22T17:58:41.704Z,23.40
2018-08-22T18:01:15.801Z,23.60
2018-08-22T18:03:52.646Z,23.60
2018-08-22T18:06:26.804Z,23.60
2018-08-22T18:09:00.579Z,23.60
2018-08-22T18:11:35.076Z,23.60
2018-08-22T18:14:08.383Z,23.70
2018-08-22T18:16:41.608Z,23.80
2018-08-22T18:19:17.200Z,24.00
2018-08-22T18:21:51.620Z,24.20
2018-08-22T18:24:25.218Z,24.40
2018-08-22T18:26:58.840Z,24.50
2018-08-22T18:29:32.463Z,24.70
2018-08-22T18:32:06.904Z,24.60
2018-08-22T18:34:49.620Z,24.70
2018-08-22T18:37:24.841Z,24.70
2018-08-22T18:40:31.207Z,24.80
2018-08-22T18:43:06.483Z,24.70
2018-08-22T18:46:10.711Z,24.90
2018-08-22T18:48:44.279Z,25.00
2018-08-22T18:51:18.873Z,25.10
2018-08-22T18:53:52.554Z,25.20
2018-08-22T18:56:26.656Z,25.20
2018-08-22T18:59:02.679Z,24.90
2018-08-22T19:01:36.522Z,25.00
2018-08-22T19:04:11.782Z,25.10
2018-08-22T19:06:46.547Z,25.20
2018-08-22T19:09:19.849Z,25.30
2018-08-22T19:11:53.872Z,25.30
2018-08-22T19:14:39.447Z,25.50
2018-08-22T19:17:15.454Z,25.60
2018-08-22T19:19:51.475Z,25.60
2018-08-22T19:22:24.675Z,25.80
2018-08-22T19:25:08.772Z,25.80
2018-08-22T19:27:42.012Z,26.00
2018-08-22T19:30:15.260Z,26.00
2018-08-22T19:32:48.794Z,25.90
2018-08-22T19:35:24.464Z,26.10
2018-08-22T19:38:02.241Z,26.30
2018-08-22T19:40:36.076Z,26.50
2018-08-22T19:43:13.825Z,26.70
2018-08-22T19:45:48.668Z,27.00
2018-08-22T19:48:22.028Z,26.70
2018-08-22T19:50:56.517Z,26.50
2018-08-22T19:53:30.655Z,26.50
2018-08-22T19:56:04.579Z,26.80
2018-08-22T19:58:38.145Z,27.00
2018-08-22T20:01:11.997Z,26.90
2018-08-22T20:03:45.800Z,26.90
2018-08-22T20:06:19.282Z,27.10
2018-08-22T20:08:55.066Z,27.20
2018-08-22T20:11:28.909Z,27.40
2018-08-22T20:14:05.785Z,27.40
2018-08-22T20:16:38.910Z,27.30
2018-08-22T20:19:13.506Z,27.20
2018-08-22T20:21:46.990Z,27.40
2018-08-22T20:24:22.544Z,27.70
2018-08-22T20:26:59.995Z,27.90
2018-08-22T20:29:33.330Z,28.00
2018-08-22T20:32:07.078Z,27.80
2018-08-22T20:34:47.565Z,27.70
2018-08-22T20:37:26.169Z,27.80
2018-08-22T20:40:05.134Z,27.80
2018-08-22T20:42:38.401Z,27.70
2018-08-22T20:45:22.512Z,27.80
2018-08-22T20:48:11.637Z,28.00
2018-08-22T20:50:46.475Z,28.20
2018-08-22T20:53:23.004Z,28.40
2018-08-22T20:55:56.410Z,28.40
2018-08-22T20:58:34.010Z,28.30
2018-08-22T21:01:09.667Z,28.30
2018-08-22T21:03:43.176Z,28.40
2018-08-22T21:06:16.534Z,28.50
2018-08-22T21:08:50.763Z,28.50
2018-08-22T21:11:26.082Z,28.40
2018-08-22T21:13:59.539Z,28.70
2018-08-22T21:16:33.853Z,28.80
2018-08-22T21:19:07.724Z,28.80
2018-08-22T21:21:40.872Z,28.90
2018-08-22T21:24:14.247Z,29.20
2018-08-22T21:26:49.505Z,29.40
2018-08-22T21:29:24.875Z,29.60
2018-08-22T21:32:00.056Z,29.70
2018-08-22T21:34:33.872Z,29.40
2018-08-22T21:37:13.471Z,29.50
2018-08-22T21:39:47.503Z,29.80
2018-08-22T21:42:31.776Z,29.80
2018-08-22T21:45:05.321Z,30.10
2018-08-22T21:47:39.252Z,30.20
2018-08-22T21:50:13.915Z,30.40
2018-08-22T21:53:03.283Z,30.20
2018-08-22T21:55:40.897Z,30.40
2018-08-22T21:58:16.188Z,30.60
2018-08-22T22:00:49.887Z,30.70
2018-08-22T22:03:27.859Z,30.90
2018-08-22T22:06:06.343Z,30.90
2018-08-22T22:08:46.279Z,30.90
2018-08-22T22:11:19.773Z,31.00
2018-08-22T22:13:55.369Z,30.60
2018-08-22T22:16:34.194Z,30.70
2018-08-22T22:19:08.259Z,30.90
2018-08-22T22:21:41.479Z,31.00
2018-08-22T22:24:15.040Z,30.90
2018-08-22T22:26:49.100Z,31.00
2018-08-22T22:29:23.028Z,30.90
2018-08-22T22:31:56.460Z,31.00
2018-08-22T22:34:34.182Z,31.10
2018-08-22T22:37:07.830Z,31.30
2018-08-22T22:39:47.898Z,31.50
2018-08-22T22:42:28.108Z,31.50
2018-08-22T22:45:02.282Z,31.30
2018-08-22T22:47:37.731Z,31.30
2018-08-22T22:50:15.886Z,31.50
2018-08-22T22:52:49.360Z,31.30
2018-08-22T22:55:23.458Z,31.40
2018-08-22T22:57:56.847Z,31.30
2018-08-22T23:00:33.187Z,31.40
2018-08-22T23:03:09.199Z,31.30
2018-08-22T23:05:43.930Z,31.50
2018-08-22T23:08:22.126Z,31.90
2018-08-22T23:10:55.493Z,31.90
2018-08-22T23:13:31.861Z,32.00
2018-08-22T23:16:05.314Z,31.70
2018-08-22T23:18:38.787Z,32.00
2018-08-22T23:21:13.460Z,32.00
2018-08-22T23:23:48.082Z,31.80
2018-08-22T23:26:24.383Z,31.90
2018-08-22T23:28:57.620Z,32.20
2018-08-22T23:31:31.882Z,32.20
2018-08-22T23:34:22.096Z,31.70
2018-08-22T23:36:55.351Z,31.90
2018-08-22T23:39:28.725Z,32.10
2018-08-22T23:42:02.117Z,32.20
2018-08-22T23:44:36.833Z,32.00
2018-08-22T23:47:10.460Z,32.10
2018-08-22T23:49:48.399Z,32.20
2018-08-22T23:52:22.118Z,32.30
2018-08-22T23:54:55.560Z,32.40
2018-08-22T23:57:28.878Z,32.30
